createdAt,value
2018-04-17T00:00:10.757Z,11.97
2018-04-17T00:00:47.174Z,11.93
2018-04-17T00:01:22.741Z,11.85
2018-04-17T00:01:57.845Z,11.90
2018-04-17T00:02:33.067Z,11.78
2018-04-17T00:03:08.396Z,11.78
2018-04-17T00:03:43.930Z,11.85
2018-04-17T00:04:19.114Z,11.77
2018-04-17T00:04:54.689Z,11.83
2018-04-17T00:05:30.995Z,11.82
2018-04-17T00:06:06.527Z,11.80
2018-04-17T00:06:41.852Z,11.78
2018-04-17T00:07:17.073Z,11.90
2018-04-17T00:07:52.478Z,11.80
2018-04-17T00:08:27.900Z,11.80
2018-04-17T00:09:03.511Z,11.78
2018-04-17T00:09:39.257Z,11.80
2018-04-17T00:10:15.677Z,11.70
2018-04-17T00:10:51.392Z,11.74
2018-04-17T00:11:26.833Z,11.85
2018-04-17T00:12:02.285Z,11.75
2018-04-17T00:12:37.687Z,11.75
2018-04-17T00:13:13.115Z,11.72
2018-04-17T00:13:48.340Z,11.80
2018-04-17T00:14:23.582Z,11.75
2018-04-17T00:14:59.030Z,11.82
2018-04-17T00:15:34.667Z,11.77
2018-04-17T00:16:11.679Z,11.70
2018-04-17T00:16:47.219Z,11.67
2018-04-17T00:17:22.422Z,11.72
2018-04-17T00:17:59.058Z,11.75
2018-04-17T00:18:34.570Z,11.57
2018-04-17T00:19:10.298Z,11.68
2018-04-17T00:19:45.604Z,11.61
2018-04-17T00:20:20.929Z,11.61
2018-04-17T00:20:56.315Z,11.68
2018-04-17T00:21:31.893Z,11.70
2018-04-17T00:22:07.399Z,11.56
2018-04-17T00:22:43.847Z,11.44
2018-04-17T00:23:19.249Z,11.53
2018-04-17T00:23:54.684Z,11.54
2018-04-17T00:24:30.089Z,11.54
2018-04-17T00:25:05.522Z,11.43
2018-04-17T00:25:40.936Z,11.52
2018-04-17T00:26:16.481Z,11.53
2018-04-17T00:26:52.807Z,11.52
2018-04-17T00:27:28.124Z,11.54
2018-04-17T00:28:03.972Z,11.59
2018-04-17T00:28:39.410Z,11.47
2018-04-17T00:29:15.346Z,11.53
2018-04-17T00:29:50.583Z,11.47
2018-04-17T00:30:27.681Z,11.52
2018-04-17T00:31:03.220Z,11.67
2018-04-17T00:31:39.369Z,11.61
2018-04-17T00:32:14.929Z,11.53
2018-04-17T00:32:50.146Z,11.47
2018-04-17T00:33:25.476Z,11.52
2018-04-17T00:34:00.864Z,11.49
2018-04-17T00:34:36.192Z,11.44
2018-04-17T00:35:11.803Z,11.61
2018-04-17T00:35:47.122Z,11.61
2018-04-17T00:36:22.232Z,11.50
2018-04-17T00:36:57.478Z,11.46
2018-04-17T00:37:34.269Z,11.36
2018-04-17T00:38:09.420Z,11.44
2018-04-17T00:38:44.727Z,11.50
2018-04-17T00:39:19.960Z,11.49
2018-04-17T00:39:55.258Z,11.41
2018-04-17T00:40:30.411Z,11.49
2018-04-17T00:41:05.417Z,11.50
2018-04-17T00:41:41.108Z,11.54
2018-04-17T00:42:16.463Z,11.53
2018-04-17T00:42:51.882Z,11.36
2018-04-17T00:43:27.212Z,11.47
2018-04-17T00:44:02.427Z,11.35
2018-04-17T00:44:38.246Z,11.32
2018-04-17T00:45:13.621Z,11.39
2018-04-17T00:45:50.232Z,11.35
2018-04-17T00:46:25.850Z,11.34
2018-04-17T00:47:01.088Z,11.24
2018-04-17T00:47:36.330Z,11.31
2018-04-17T00:48:11.815Z,11.32
2018-04-17T00:48:47.177Z,11.41
2018-04-17T00:49:22.771Z,11.39
2018-04-17T00:49:58.108Z,11.38
2018-04-17T00:50:33.809Z,11.50
2018-04-17T00:51:09.254Z,11.36
2018-04-17T00:51:45.008Z,11.49
2018-04-17T00:52:20.243Z,11.47
2018-04-17T00:52:55.648Z,11.41
2018-04-17T00:53:30.818Z,11.39
2018-04-17T00:54:06.327Z,11.35
2018-04-17T00:54:42.751Z,11.41
2018-04-17T00:55:17.970Z,11.41
2018-04-17T00:55:53.105Z,11.41
2018-04-17T00:56:28.895Z,11.41
2018-04-17T00:57:04.484Z,11.49
2018-04-17T00:57:39.807Z,11.52
2018-04-17T00:58:15.438Z,11.56
2018-04-17T00:58:50.728Z,11.54
2018-04-17T00:59:26.038Z,11.54
2018-04-17T01:00:01.560Z,11.64
2018-04-17T01:00:37.995Z,11.65
2018-04-17T01:01:13.314Z,11.71
2018-04-17T01:01:48.750Z,11.61
2018-04-17T01:02:24.176Z,11.61
2018-04-17T01:02:59.599Z,11.65
2018-04-17T01:03:34.881Z,11.67
2018-04-17T01:04:10.414Z,11.74
2018-04-17T01:04:45.617Z,11.68
2018-04-17T01:05:22.843Z,11.56
2018-04-17T01:05:58.480Z,11.67
2018-04-17T01:06:35.414Z,11.62
2018-04-17T01:07:10.849Z,11.62
2018-04-17T01:07:46.171Z,11.52
2018-04-17T01:08:21.478Z,11.57
2018-04-17T01:08:56.917Z,11.50
2018-04-17T01:09:32.209Z,11.46
2018-04-17T01:10:07.646Z,11.53
2018-04-17T01:10:42.845Z,11.46
2018-04-17T01:11:21.272Z,11.46
2018-04-17T01:11:56.680Z,11.43
2018-04-17T01:12:32.233Z,11.44
2018-04-17T01:13:07.425Z,11.46
2018-04-17T01:13:42.862Z,11.43
2018-04-17T01:14:18.492Z,11.46
2018-04-17T01:14:53.726Z,11.39
2018-04-17T01:15:29.041Z,11.43
2018-04-17T01:16:05.154Z,11.41
2018-04-17T01:16:41.459Z,11.39
2018-04-17T01:17:17.008Z,11.41
2018-04-17T01:17:52.406Z,11.38
2018-04-17T01:18:28.136Z,11.41
2018-04-17T01:19:03.445Z,11.38
2018-04-17T01:19:38.789Z,11.36
2018-04-17T01:20:13.980Z,11.43
2018-04-17T01:20:49.719Z,11.28
2018-04-17T01:21:25.013Z,11.31
2018-04-17T01:22:00.220Z,11.32
2018-04-17T01:22:35.733Z,11.25
2018-04-17T01:23:11.269Z,11.24
2018-04-17T01:23:46.763Z,11.24
2018-04-17T01:24:22.013Z,11.24
2018-04-17T01:24:57.309Z,11.28
2018-04-17T01:25:32.818Z,11.13
2018-04-17T01:26:07.916Z,11.17
2018-04-17T01:26:43.333Z,11.27
2018-04-17T01:27:18.690Z,11.14
2018-04-17T01:27:54.121Z,11.16
2018-04-17T01:28:29.399Z,11.19
2018-04-17T01:29:04.858Z,11.19
2018-04-17T01:29:40.040Z,11.24
2018-04-17T01:30:15.695Z,11.16
2018-04-17T01:30:51.683Z,11.19
2018-04-17T01:31:27.359Z,11.24
2018-04-17T01:32:02.966Z,11.35
2018-04-17T01:32:38.200Z,11.34
2018-04-17T01:33:13.387Z,11.38
2018-04-17T01:33:49.288Z,11.32
2018-04-17T01:34:24.798Z,11.43
2018-04-17T01:34:59.911Z,11.31
2018-04-17T01:35:35.301Z,11.31
2018-04-17T01:36:10.510Z,11.31
2018-04-17T01:36:45.915Z,11.39
2018-04-17T01:37:21.282Z,11.35
2018-04-17T01:37:56.633Z,11.34
2018-04-17T01:38:31.964Z,11.32
2018-04-17T01:39:07.223Z,11.28
2018-04-17T01:39:42.736Z,11.16
2018-04-17T01:40:18.130Z,11.25
2018-04-17T01:40:53.337Z,11.21
2018-04-17T01:41:28.629Z,11.31
2018-04-17T01:42:04.048Z,11.29
2018-04-17T01:42:39.346Z,11.20
2018-04-17T01:43:14.543Z,11.24
2018-04-17T01:43:49.838Z,11.21
2018-04-17T01:44:25.066Z,11.25
2018-04-17T01:45:00.357Z,11.27
2018-04-17T01:45:35.713Z,11.20
2018-04-17T01:46:10.919Z,11.24
2018-04-17T01:46:46.247Z,11.13
2018-04-17T01:47:21.538Z,11.16
2018-04-17T01:47:56.778Z,11.06
2018-04-17T01:48:31.971Z,11.10
2018-04-17T01:49:07.208Z,10.96
2018-04-17T01:49:42.981Z,11.01
2018-04-17T01:50:18.544Z,10.98
2018-04-17T01:50:56.153Z,10.98
2018-04-17T01:51:31.674Z,11.03
2018-04-17T01:52:06.947Z,11.07
2018-04-17T01:52:43.184Z,11.02
2018-04-17T01:53:18.670Z,11.07
2018-04-17T01:53:54.116Z,10.91
2018-04-17T01:54:29.500Z,10.96
2018-04-17T01:55:04.607Z,11.02
2018-04-17T01:55:40.288Z,10.98
2018-04-17T01:56:15.694Z,11.03
2018-04-17T01:56:50.779Z,11.07
2018-04-17T01:57:26.200Z,11.02
2018-04-17T01:58:01.501Z,11.03
2018-04-17T01:58:36.708Z,11.09
2018-04-17T01:59:12.197Z,10.91
2018-04-17T01:59:47.507Z,10.98
2018-04-17T02:00:22.895Z,10.91
2018-04-17T02:00:59.816Z,10.89
2018-04-17T02:01:35.084Z,10.83
2018-04-17T02:02:10.684Z,10.88
2018-04-17T02:02:46.123Z,10.91
2018-04-17T02:03:21.330Z,10.78
2018-04-17T02:03:56.510Z,10.92
2018-04-17T02:04:31.824Z,10.89
2018-04-17T02:05:07.812Z,10.78
2018-04-17T02:05:43.031Z,10.83
2018-04-17T02:06:18.535Z,10.74
2018-04-17T02:06:53.745Z,10.88
2018-04-17T02:07:29.136Z,10.86
2018-04-17T02:08:04.778Z,10.88
2018-04-17T02:08:40.358Z,10.84
2018-04-17T02:09:15.679Z,10.81
2018-04-17T02:09:51.393Z,10.81
2018-04-17T02:10:26.726Z,10.83
2018-04-17T02:11:01.935Z,10.83
2018-04-17T02:11:37.172Z,10.76
2018-04-17T02:12:12.453Z,10.76
2018-04-17T02:12:47.864Z,10.65
2018-04-17T02:13:23.255Z,10.62
2018-04-17T02:13:58.510Z,10.73
2018-04-17T02:14:33.698Z,10.68
2018-04-17T02:15:08.944Z,10.77
2018-04-17T02:15:44.480Z,10.71
2018-04-17T02:16:19.905Z,10.77
2018-04-17T02:16:55.174Z,10.70
2018-04-17T02:17:30.691Z,10.73
2018-04-17T02:18:06.093Z,10.71
2018-04-17T02:18:41.513Z,10.80
2018-04-17T02:19:16.892Z,10.76
2018-04-17T02:19:52.455Z,10.78
2018-04-17T02:20:27.824Z,10.83
2018-04-17T02:21:02.942Z,10.73
2018-04-17T02:21:38.731Z,10.80
2018-04-17T02:22:14.043Z,10.70
2018-04-17T02:22:49.340Z,10.68
2018-04-17T02:23:24.683Z,10.65
2018-04-17T02:24:00.062Z,10.58
2018-04-17T02:24:35.501Z,10.60
2018-04-17T02:25:10.923Z,10.52
2018-04-17T02:25:48.140Z,10.56
2018-04-17T02:26:23.542Z,10.59
2018-04-17T02:26:59.349Z,10.55
2018-04-17T02:27:34.324Z,10.53
2018-04-17T02:28:09.860Z,10.55
2018-04-17T02:28:45.260Z,10.60
2018-04-17T02:29:20.463Z,10.55
2018-04-17T02:29:55.759Z,10.56
2018-04-17T02:30:31.210Z,10.40
2018-04-17T02:31:06.408Z,10.52
2018-04-17T02:31:41.750Z,10.46
2018-04-17T02:32:17.221Z,10.46
2018-04-17T02:32:52.537Z,10.56
2018-04-17T02:33:27.659Z,10.43
2018-04-17T02:34:02.800Z,10.36
2018-04-17T02:34:38.104Z,10.46
2018-04-17T02:35:13.422Z,10.42
2018-04-17T02:35:49.004Z,10.55
2018-04-17T02:36:24.422Z,10.52
2018-04-17T02:36:59.781Z,10.44
2018-04-17T02:37:35.421Z,10.42
2018-04-17T02:38:10.628Z,10.53
2018-04-17T02:38:45.833Z,10.53
2018-04-17T02:39:20.952Z,10.59
2018-04-17T02:39:56.165Z,10.56
2018-04-17T02:40:31.552Z,10.65
2018-04-17T02:41:06.986Z,10.62
2018-04-17T02:41:42.271Z,10.55
2018-04-17T02:42:17.692Z,10.66
2018-04-17T02:42:53.055Z,10.53
2018-04-17T02:43:28.909Z,10.51
2018-04-17T02:44:04.389Z,10.40
2018-04-17T02:44:39.821Z,10.43
2018-04-17T02:45:15.003Z,10.46
2018-04-17T02:45:50.634Z,10.42
2018-04-17T02:46:25.925Z,10.42
2018-04-17T02:47:01.329Z,10.37
2018-04-17T02:47:36.670Z,10.34
2018-04-17T02:48:12.070Z,10.34
2018-04-17T02:48:47.370Z,10.39
2018-04-17T02:49:22.788Z,10.36
2018-04-17T02:49:58.193Z,10.34
2018-04-17T02:50:33.401Z,10.47
2018-04-17T02:51:08.486Z,10.40
2018-04-17T02:51:44.213Z,10.34
2018-04-17T02:52:19.487Z,10.46
2018-04-17T02:52:55.004Z,10.39
2018-04-17T02:53:30.427Z,10.34
2018-04-17T02:54:05.736Z,10.40
2018-04-17T02:54:41.013Z,10.39
2018-04-17T02:55:16.368Z,10.39
2018-04-17T02:55:51.652Z,10.34
2018-04-17T02:56:27.188Z,10.40
2018-04-17T02:57:02.663Z,10.40
2018-04-17T02:57:38.467Z,10.40
2018-04-17T02:58:13.763Z,10.40
2018-04-17T02:58:50.308Z,10.28
2018-04-17T02:59:25.909Z,10.30
2018-04-17T03:00:01.333Z,10.30
2018-04-17T03:00:36.708Z,10.26
2018-04-17T03:01:12.020Z,10.28
2018-04-17T03:01:47.129Z,10.32
2018-04-17T03:02:22.582Z,10.25
2018-04-17T03:02:57.982Z,10.34
2018-04-17T03:03:33.433Z,10.37
2018-04-17T03:04:08.916Z,10.40
2018-04-17T03:04:44.325Z,10.30
2018-04-17T03:05:19.604Z,10.21
2018-04-17T03:05:54.804Z,10.28
2018-04-17T03:06:30.392Z,10.36
2018-04-17T03:07:05.733Z,10.34
2018-04-17T03:07:41.066Z,10.22
2018-04-17T03:08:16.334Z,10.25
2018-04-17T03:08:51.554Z,10.24
2018-04-17T03:09:27.002Z,10.19
2018-04-17T03:10:02.304Z,10.19
2018-04-17T03:10:39.815Z,10.19
2018-04-17T03:11:15.107Z,10.14
2018-04-17T03:11:50.659Z,10.21
2018-04-17T03:12:26.170Z,10.25
2018-04-17T03:13:01.393Z,10.39
2018-04-17T03:13:36.924Z,10.34
2018-04-17T03:14:12.025Z,10.37
2018-04-17T03:14:47.401Z,10.30
2018-04-17T03:15:22.519Z,10.19
2018-04-17T03:16:00.407Z,10.26
2018-04-17T03:16:36.009Z,10.28
2018-04-17T03:17:11.502Z,10.25
2018-04-17T03:17:47.015Z,10.22
2018-04-17T03:18:22.352Z,10.19
2018-04-17T03:18:57.784Z,10.24
2018-04-17T03:19:32.871Z,10.18
2018-04-17T03:20:08.098Z,10.21
2018-04-17T03:20:44.195Z,10.15
2018-04-17T03:21:19.705Z,10.24
2018-04-17T03:21:55.280Z,10.26
2018-04-17T03:22:30.510Z,10.26
2018-04-17T03:23:05.993Z,10.24
2018-04-17T03:23:41.258Z,10.18
2018-04-17T03:24:16.740Z,10.10
2018-04-17T03:24:52.150Z,10.21
2018-04-17T03:25:27.320Z,10.17
2018-04-17T03:26:02.653Z,10.06
2018-04-17T03:26:38.162Z,10.03
2018-04-17T03:27:13.492Z,10.07
2018-04-17T03:27:48.962Z,10.06
2018-04-17T03:28:24.365Z,10.07
2018-04-17T03:28:59.890Z,10.12
2018-04-17T03:29:35.300Z,10.01
2018-04-17T03:30:10.473Z,10.09
2018-04-17T03:30:45.999Z,10.06
2018-04-17T03:31:21.495Z,10.15
2018-04-17T03:31:57.088Z,10.17
2018-04-17T03:32:32.357Z,10.06
2018-04-17T03:33:07.804Z,10.09
2018-04-17T03:33:43.104Z,10.09
2018-04-17T03:34:18.533Z,10.12
2018-04-17T03:34:53.933Z,10.06
2018-04-17T03:35:29.443Z,10.06
2018-04-17T03:36:05.008Z,10.14
2018-04-17T03:36:40.618Z,10.03
2018-04-17T03:37:15.819Z,9.97
2018-04-17T03:37:51.259Z,9.96
2018-04-17T03:38:26.546Z,10.04
2018-04-17T03:39:01.880Z,9.96
2018-04-17T03:39:37.811Z,9.96
2018-04-17T03:40:13.467Z,10.01
2018-04-17T03:40:48.834Z,10.01
2018-04-17T03:41:25.262Z,9.97
2018-04-17T03:42:00.534Z,9.96
2018-04-17T03:42:36.333Z,9.91
2018-04-17T03:43:11.630Z,10.04
2018-04-17T03:43:47.849Z,9.94
2018-04-17T03:44:23.039Z,10.03
2018-04-17T03:45:01.771Z,9.96
2018-04-17T03:45:36.962Z,10.03
2018-04-17T03:46:12.167Z,10.04
2018-04-17T03:46:47.387Z,10.06
2018-04-17T03:47:22.913Z,10.07
2018-04-17T03:47:58.115Z,10.01
2018-04-17T03:48:33.523Z,10.09
2018-04-17T03:49:08.951Z,10.04
2018-04-17T03:49:44.060Z,10.15
2018-04-17T03:50:19.241Z,10.18
2018-04-17T03:50:54.593Z,10.09
2018-04-17T03:51:29.982Z,10.12
2018-04-17T03:52:05.203Z,10.07
2018-04-17T03:52:40.468Z,10.09
2018-04-17T03:53:15.902Z,10.18
2018-04-17T03:53:51.192Z,10.22
2018-04-17T03:54:26.236Z,10.28
2018-04-17T03:55:01.616Z,10.24
2018-04-17T03:55:37.524Z,10.34
2018-04-17T03:56:12.605Z,10.34
2018-04-17T03:56:48.020Z,10.37
2018-04-17T03:57:23.689Z,10.42
2018-04-17T03:57:59.233Z,10.40
2018-04-17T03:58:34.765Z,10.46
2018-04-17T03:59:10.112Z,10.46
2018-04-17T03:59:45.611Z,10.36
2018-04-17T04:00:20.839Z,10.40
2018-04-17T04:00:56.137Z,10.39
2018-04-17T04:01:31.369Z,10.33
2018-04-17T04:02:07.972Z,10.40
2018-04-17T04:02:44.229Z,10.39
2018-04-17T04:03:19.464Z,10.42
2018-04-17T04:03:54.882Z,10.36
2018-04-17T04:04:30.397Z,10.36
2018-04-17T04:05:05.819Z,10.36
2018-04-17T04:05:43.911Z,10.39
2018-04-17T04:06:19.140Z,10.25
2018-04-17T04:06:55.128Z,10.30
2018-04-17T04:07:30.437Z,10.12
2018-04-17T04:08:05.814Z,10.17
2018-04-17T04:08:41.178Z,10.04
2018-04-17T04:09:16.594Z,10.10
2018-04-17T04:09:51.806Z,10.14
2018-04-17T04:10:27.292Z,10.18
2018-04-17T04:11:03.215Z,10.17
2018-04-17T04:11:38.623Z,10.18
2018-04-17T04:12:13.923Z,10.21
2018-04-17T04:12:49.200Z,10.07
2018-04-17T04:13:24.846Z,10.17
2018-04-17T04:14:00.276Z,10.19
2018-04-17T04:14:35.704Z,10.22
2018-04-17T04:15:11.117Z,10.12
2018-04-17T04:15:47.727Z,10.12
2018-04-17T04:16:23.139Z,10.17
2018-04-17T04:16:58.274Z,10.10
2018-04-17T04:17:33.557Z,10.10
2018-04-17T04:18:08.774Z,10.06
2018-04-17T04:18:43.969Z,10.06
2018-04-17T04:19:19.391Z,10.06
2018-04-17T04:19:54.609Z,9.99
2018-04-17T04:20:29.606Z,9.99
2018-04-17T04:21:04.814Z,9.97
2018-04-17T04:21:40.129Z,9.88
2018-04-17T04:22:15.344Z,9.85
2018-04-17T04:22:50.787Z,9.89
2018-04-17T04:23:26.674Z,9.79
2018-04-17T04:24:02.301Z,9.81
2018-04-17T04:24:37.513Z,9.81
2018-04-17T04:25:14.343Z,9.86
2018-04-17T04:25:50.618Z,9.76
2018-04-17T04:26:25.915Z,9.71
2018-04-17T04:27:01.425Z,9.75
2018-04-17T04:27:37.962Z,9.73
2018-04-17T04:28:13.229Z,9.86
2018-04-17T04:28:48.455Z,9.71
2018-04-17T04:29:23.624Z,9.79
2018-04-17T04:29:58.794Z,9.81
2018-04-17T04:30:34.200Z,9.89
2018-04-17T04:31:09.835Z,9.83
2018-04-17T04:31:45.374Z,9.75
2018-04-17T04:32:20.716Z,9.85
2018-04-17T04:32:56.110Z,9.82
2018-04-17T04:33:31.524Z,9.94
2018-04-17T04:34:06.893Z,10.00
2018-04-17T04:34:42.131Z,10.03
2018-04-17T04:35:17.749Z,10.04
2018-04-17T04:35:52.874Z,10.09
2018-04-17T04:36:28.863Z,10.09
2018-04-17T04:37:04.308Z,10.07
2018-04-17T04:37:39.591Z,10.12
2018-04-17T04:38:14.891Z,10.10
2018-04-17T04:38:50.075Z,10.09
2018-04-17T04:39:25.671Z,10.07
2018-04-17T04:40:00.994Z,10.04
2018-04-17T04:40:38.145Z,10.12
2018-04-17T04:41:13.872Z,10.03
2018-04-17T04:41:49.531Z,10.00
2018-04-17T04:42:27.033Z,10.03
2018-04-17T04:43:02.548Z,9.97
2018-04-17T04:43:38.028Z,10.00
2018-04-17T04:44:13.551Z,10.10
2018-04-17T04:44:50.386Z,10.06
2018-04-17T04:45:25.700Z,10.07
2018-04-17T04:46:01.117Z,10.06
2018-04-17T04:46:36.430Z,10.06
2018-04-17T04:47:11.609Z,10.06
2018-04-17T04:47:47.020Z,10.07
2018-04-17T04:48:22.605Z,10.09
2018-04-17T04:48:58.223Z,10.03
2018-04-17T04:49:33.606Z,10.03
2018-04-17T04:50:08.875Z,10.01
2018-04-17T04:50:44.180Z,10.04
2018-04-17T04:51:20.203Z,10.06
2018-04-17T04:51:55.608Z,10.09
2018-04-17T04:52:31.562Z,10.06
2018-04-17T04:53:07.582Z,9.99
2018-04-17T04:53:43.287Z,10.03
2018-04-17T04:54:18.549Z,10.06
2018-04-17T04:54:56.418Z,10.00
2018-04-17T04:55:31.803Z,10.00
2018-04-17T04:56:07.330Z,10.03
2018-04-17T04:56:42.496Z,10.00
2018-04-17T04:57:17.733Z,10.03
2018-04-17T04:57:52.911Z,10.00
2018-04-17T04:58:28.135Z,9.99
2018-04-17T04:59:03.245Z,10.09
2018-04-17T04:59:38.663Z,10.06
2018-04-17T05:00:13.991Z,9.97
2018-04-17T05:00:52.320Z,10.12
2018-04-17T05:01:27.826Z,10.07
2018-04-17T05:02:03.034Z,10.12
2018-04-17T05:02:39.341Z,10.10
2018-04-17T05:03:14.736Z,9.96
2018-04-17T05:03:50.221Z,10.03
2018-04-17T05:04:25.554Z,9.94
2018-04-17T05:05:04.562Z,9.96
2018-04-17T05:05:40.209Z,10.00
2018-04-17T05:06:15.695Z,9.93
2018-04-17T05:06:51.937Z,10.00
2018-04-17T05:07:27.221Z,9.91
2018-04-17T05:08:03.359Z,9.94
2018-04-17T05:08:38.650Z,9.89
2018-04-17T05:09:14.059Z,10.00
2018-04-17T05:09:50.105Z,9.89
2018-04-17T05:10:25.545Z,9.83
2018-04-17T05:11:00.861Z,9.88
2018-04-17T05:11:36.296Z,9.97
2018-04-17T05:12:11.706Z,9.93
2018-04-17T05:12:48.080Z,9.88
2018-04-17T05:13:23.515Z,9.89
2018-04-17T05:13:58.971Z,10.00
2018-04-17T05:14:35.260Z,10.04
2018-04-17T05:15:10.416Z,10.00
2018-04-17T05:15:46.425Z,9.97
2018-04-17T05:16:21.835Z,10.03
2018-04-17T05:16:57.143Z,10.00
2018-04-17T05:17:32.461Z,10.01
2018-04-17T05:18:07.650Z,10.07
2018-04-17T05:18:43.284Z,10.03
2018-04-17T05:19:18.571Z,10.07
2018-04-17T05:19:54.197Z,10.14
2018-04-17T05:20:29.317Z,10.19
2018-04-17T05:21:04.643Z,10.09
2018-04-17T05:21:40.233Z,10.17
2018-04-17T05:22:15.963Z,10.17
2018-04-17T05:22:51.135Z,10.18
2018-04-17T05:23:26.946Z,10.25
2018-04-17T05:24:02.239Z,10.22
2018-04-17T05:24:37.742Z,10.25
2018-04-17T05:25:13.091Z,10.30
2018-04-17T05:25:48.921Z,10.26
2018-04-17T05:26:24.301Z,10.36
2018-04-17T05:26:59.864Z,10.33
2018-04-17T05:27:34.955Z,10.40
2018-04-17T05:28:10.216Z,10.37
2018-04-17T05:28:45.725Z,10.52
2018-04-17T05:29:20.952Z,10.51
2018-04-17T05:29:56.234Z,10.51
2018-04-17T05:30:31.591Z,10.47
2018-04-17T05:31:07.289Z,10.44
2018-04-17T05:31:42.602Z,10.52
2018-04-17T05:32:18.015Z,10.53
2018-04-17T05:32:53.466Z,10.44
2018-04-17T05:33:28.656Z,10.59
2018-04-17T05:34:03.881Z,10.56
2018-04-17T05:34:39.510Z,10.59
2018-04-17T05:35:17.351Z,10.58
2018-04-17T05:35:52.548Z,10.62
2018-04-17T05:36:31.167Z,10.65
2018-04-17T05:37:06.484Z,10.63
2018-04-17T05:37:41.846Z,10.63
2018-04-17T05:38:17.321Z,10.55
2018-04-17T05:38:52.742Z,10.60
2018-04-17T05:39:28.006Z,10.65
2018-04-17T05:40:03.688Z,10.63
2018-04-17T05:40:41.412Z,10.62
2018-04-17T05:41:16.625Z,10.65
2018-04-17T05:41:52.220Z,10.59
2018-04-17T05:42:27.421Z,10.66
2018-04-17T05:43:02.508Z,10.65
2018-04-17T05:43:38.022Z,10.73
2018-04-17T05:44:13.124Z,10.63
2018-04-17T05:44:51.744Z,10.70
2018-04-17T05:45:27.475Z,10.73
2018-04-17T05:46:03.002Z,10.73
2018-04-17T05:46:38.979Z,10.71
2018-04-17T05:47:14.503Z,10.81
2018-04-17T05:47:49.688Z,10.78
2018-04-17T05:48:25.048Z,10.77
2018-04-17T05:49:00.659Z,10.89
2018-04-17T05:49:36.177Z,10.86
2018-04-17T05:50:11.635Z,10.94
2018-04-17T05:50:47.122Z,10.98
2018-04-17T05:51:22.639Z,10.98
2018-04-17T05:51:57.983Z,10.98
2018-04-17T05:52:33.489Z,10.98
2018-04-17T05:53:09.137Z,11.03
2018-04-17T05:53:45.649Z,11.10
2018-04-17T05:54:21.068Z,11.10
2018-04-17T05:54:56.347Z,11.02
2018-04-17T05:55:31.621Z,11.02
2018-04-17T05:56:07.106Z,11.13
2018-04-17T05:56:42.331Z,11.07
2018-04-17T05:57:17.720Z,11.19
2018-04-17T05:57:53.168Z,11.25
2018-04-17T05:58:28.575Z,11.24
2018-04-17T05:59:03.893Z,11.32
2018-04-17T05:59:39.179Z,11.39
2018-04-17T06:00:15.682Z,11.38
2018-04-17T06:00:52.991Z,11.54
2018-04-17T06:01:28.235Z,11.54
2018-04-17T06:02:03.421Z,11.44
2018-04-17T06:02:38.935Z,11.57
2018-04-17T06:03:14.337Z,11.68
2018-04-17T06:03:51.575Z,11.75
2018-04-17T06:04:26.816Z,11.83
2018-04-17T06:05:02.334Z,11.87
2018-04-17T06:05:40.771Z,11.87
2018-04-17T06:06:15.885Z,11.97
2018-04-17T06:06:51.308Z,11.90
2018-04-17T06:07:26.821Z,12.01
2018-04-17T06:08:02.000Z,11.99
2018-04-17T06:08:38.455Z,12.08
2018-04-17T06:09:16.468Z,12.15
2018-04-17T06:09:51.789Z,12.23
2018-04-17T06:10:28.579Z,12.38
2018-04-17T06:11:04.107Z,12.48
2018-04-17T06:11:39.397Z,12.34
2018-04-17T06:12:14.924Z,12.49
2018-04-17T06:12:50.124Z,12.56
2018-04-17T06:13:25.541Z,12.44
2018-04-17T06:14:00.818Z,12.57
2018-04-17T06:14:36.331Z,12.74
2018-04-17T06:15:11.652Z,12.67
2018-04-17T06:15:52.702Z,12.71
2018-04-17T06:16:30.091Z,12.67
2018-04-17T06:17:08.110Z,12.54
2018-04-17T06:17:43.321Z,12.52
2018-04-17T06:20:21.193Z,12.78
2018-04-17T06:20:56.528Z,12.96
2018-04-17T06:21:31.689Z,13.00
2018-04-17T06:22:07.003Z,13.18
2018-04-17T06:22:42.377Z,13.33
2018-04-17T06:23:17.709Z,13.30
2018-04-17T06:23:53.243Z,13.40
2018-04-17T06:24:28.748Z,13.43
2018-04-17T06:25:04.422Z,13.55
2018-04-17T06:25:39.845Z,13.74
2018-04-17T06:26:15.150Z,13.87
2018-04-17T06:26:50.581Z,13.92
2018-04-17T06:27:25.666Z,13.94
2018-04-17T06:28:01.270Z,14.07
2018-04-17T06:28:36.378Z,14.27
2018-04-17T06:29:15.104Z,14.49
2018-04-17T06:29:50.377Z,14.69
2018-04-17T06:30:25.905Z,14.91
2018-04-17T06:31:01.095Z,15.17
2018-04-17T06:31:36.117Z,15.54
2018-04-17T06:32:15.090Z,15.96
2018-04-17T06:32:50.204Z,16.40
2018-04-17T06:33:25.617Z,16.63
2018-04-17T06:34:01.028Z,16.88
2018-04-17T06:34:36.205Z,17.17
2018-04-17T06:35:11.505Z,17.47
2018-04-17T06:35:46.886Z,17.67
2018-04-17T06:36:22.208Z,17.88
2018-04-17T06:36:57.628Z,17.97
2018-04-17T06:37:32.921Z,18.13
2018-04-17T06:38:08.526Z,18.67
2018-04-17T06:38:43.930Z,19.08
2018-04-17T06:39:19.111Z,19.11
2018-04-17T06:39:54.411Z,18.70
2018-04-17T06:40:32.808Z,18.24
2018-04-17T06:41:08.051Z,18.58
2018-04-17T06:41:45.623Z,18.79
2018-04-17T06:42:20.733Z,18.98
2018-04-17T06:42:56.116Z,18.67
2018-04-17T06:43:31.761Z,18.72
2018-04-17T06:44:07.285Z,18.97
2018-04-17T06:44:43.388Z,18.84
2018-04-17T06:45:19.010Z,18.92
2018-04-17T06:45:54.135Z,18.84
2018-04-17T06:46:29.325Z,19.24
2018-04-17T06:47:04.762Z,19.28
2018-04-17T06:47:40.382Z,19.24
2018-04-17T06:48:16.862Z,19.01
2018-04-17T06:48:52.247Z,18.76
2018-04-17T06:49:27.706Z,18.90
2018-04-17T06:50:03.019Z,19.15
2018-04-17T06:50:41.273Z,19.55
2018-04-17T06:51:17.682Z,20.20
2018-04-17T06:51:53.312Z,20.46
2018-04-17T06:52:28.418Z,20.93
2018-04-17T06:53:03.665Z,21.20
2018-04-17T06:53:39.888Z,21.53
2018-04-17T06:54:15.438Z,21.34
2018-04-17T06:54:50.727Z,21.13
2018-04-17T06:55:26.070Z,21.14
2018-04-17T06:56:01.262Z,21.17
2018-04-17T06:56:36.681Z,21.45
2018-04-17T06:57:11.787Z,21.67
2018-04-17T06:57:47.121Z,21.39
2018-04-17T06:58:22.636Z,21.24
2018-04-17T06:58:58.179Z,21.27
2018-04-17T06:59:33.479Z,21.24
2018-04-17T07:00:08.800Z,21.63
2018-04-17T07:00:46.116Z,21.91
2018-04-17T07:01:23.151Z,21.99
2018-04-17T07:01:58.529Z,22.37
2018-04-17T07:02:33.940Z,22.60
2018-04-17T07:03:09.634Z,22.97
2018-04-17T07:03:45.066Z,23.24
2018-04-17T07:04:20.658Z,23.38
2018-04-17T07:04:56.087Z,23.57
2018-04-17T07:05:31.304Z,23.39
2018-04-17T07:06:06.525Z,23.86
2018-04-17T07:06:42.024Z,23.76
2018-04-17T07:07:17.481Z,23.58
2018-04-17T07:07:53.119Z,23.80
2018-04-17T07:08:28.463Z,23.68
2018-04-17T07:09:04.156Z,23.71
2018-04-17T07:09:39.381Z,23.43
2018-04-17T07:10:15.002Z,23.15
2018-04-17T07:10:51.239Z,23.20
2018-04-17T07:11:26.757Z,22.74
2018-04-17T07:12:01.978Z,22.49
2018-04-17T07:12:37.476Z,22.37
2018-04-17T07:13:12.784Z,22.12
2018-04-17T07:13:48.895Z,21.46
2018-04-17T07:14:24.123Z,20.71
2018-04-17T07:14:59.338Z,20.80
2018-04-17T07:15:38.449Z,20.56
2018-04-17T07:16:18.148Z,20.54
2018-04-17T07:16:53.685Z,20.53
2018-04-17T07:17:28.840Z,20.05
2018-04-17T07:18:04.281Z,19.97
2018-04-17T07:18:39.702Z,19.63
2018-04-17T07:19:14.829Z,19.75
2018-04-17T07:19:50.261Z,19.61
2018-04-17T07:20:25.471Z,19.28
2018-04-17T07:21:01.365Z,18.87
2018-04-17T07:21:36.877Z,18.90
2018-04-17T07:22:12.306Z,18.95
2018-04-17T07:22:47.728Z,18.94
2018-04-17T07:23:23.051Z,18.67
2018-04-17T07:23:58.691Z,18.61
2018-04-17T07:24:34.088Z,18.68
2018-04-17T07:25:09.601Z,18.76
2018-04-17T07:25:45.299Z,18.76
2018-04-17T07:26:20.767Z,18.74
2018-04-17T07:26:56.077Z,18.76
2018-04-17T07:27:31.500Z,18.77
2018-04-17T07:28:07.995Z,19.05
2018-04-17T07:28:43.753Z,19.23
2018-04-17T07:29:19.047Z,19.23
2018-04-17T07:29:54.581Z,19.14
2018-04-17T07:30:30.049Z,19.08
2018-04-17T07:31:05.678Z,19.29
2018-04-17T07:31:41.096Z,19.29
2018-04-17T07:32:16.409Z,19.25
2018-04-17T07:32:52.005Z,19.06
2018-04-17T07:33:27.476Z,19.28
2018-04-17T07:34:03.051Z,19.38
2018-04-17T07:34:39.639Z,19.31
2018-04-17T07:35:14.889Z,19.32
2018-04-17T07:35:50.111Z,19.36
2018-04-17T07:36:25.621Z,19.60
2018-04-17T07:37:01.043Z,19.65
2018-04-17T07:37:38.667Z,19.66
2018-04-17T07:38:14.096Z,19.84
2018-04-17T07:38:49.411Z,19.79
2018-04-17T07:39:24.965Z,19.97
2018-04-17T07:40:00.449Z,19.91
2018-04-17T07:40:35.853Z,20.12
2018-04-17T07:41:11.875Z,20.10